Terminal Aerodrome Forecast
Issued by NWS Chicago, IL

Home | Current Version | Previous Version | Text Only | Print | Product List | Glossary Off
Versions: 1 2 3 4 5 6 7 8 9 10 11 12 13 14 15 16 17 18 19 20 21 22 23 24 25 26 27 28 29 30 31

000
FTUS43 KLOT 270300 AAA
TAFRFD
TAF AMD
KRFD 270312Z 2703/2724 25005KT P6SM BKN150
     FM270600 00000KT 4SM BR SCT150
     FM270900 00000KT 2SM BR BCFG SKC
     FM271400 30012G18KT P6SM SCT150
     FM271700 31018G28KT P6SM BKN045=

USA.gov is the U.S. government's official web portal to all federal, state and local government web resources and services.